createdAt,value
2023-02-11T00:01:28.366Z,8.90
2023-02-11T00:03:56.402Z,11.07
2023-02-11T00:06:23.786Z,12.50
2023-02-11T00:08:50.600Z,11.25
2023-02-11T00:11:19.920Z,12.40
2023-02-11T00:13:47.658Z,8.55
2023-02-11T00:16:18.849Z,10.38
2023-02-11T00:18:46.156Z,9.23
2023-02-11T00:21:17.906Z,8.02
2023-02-11T00:23:46.632Z,10.40
2023-02-11T00:26:25.120Z,7.82
2023-02-11T00:28:52.391Z,6.13
2023-02-11T00:31:21.481Z,8.80
2023-02-11T00:33:48.886Z,8.60
2023-02-11T00:36:18.484Z,9.30
2023-02-11T00:38:46.464Z,7.70
2023-02-11T00:41:14.642Z,8.07
2023-02-11T00:43:41.835Z,10.45
2023-02-11T00:46:09.448Z,12.75
2023-02-11T00:48:36.652Z,10.63
2023-02-11T00:51:04.223Z,9.45
2023-02-11T00:53:31.729Z,8.45
2023-02-11T00:55:58.610Z,10.00
2023-02-11T00:58:25.438Z,7.97
2023-02-11T01:00:53.432Z,8.45
2023-02-11T01:06:23.230Z,8.52
2023-02-11T01:08:50.147Z,12.52
2023-02-11T01:11:19.883Z,9.27
2023-02-11T01:13:49.015Z,8.73
2023-02-11T01:16:16.272Z,10.90
2023-02-11T01:18:58.930Z,8.75
2023-02-11T01:23:52.888Z,9.63
2023-02-11T01:26:19.698Z,10.80
2023-02-11T01:28:46.573Z,14.40
2023-02-11T01:31:13.733Z,11.60
2023-02-11T01:33:40.797Z,9.80
2023-02-11T01:36:08.491Z,11.80
2023-02-11T01:38:35.998Z,10.43
2023-02-11T01:41:05.719Z,9.98
2023-02-11T01:43:38.720Z,7.32
2023-02-11T01:46:21.289Z,8.02
2023-02-11T01:48:52.625Z,8.98
2023-02-11T01:51:24.998Z,7.05
2023-02-11T01:54:11.573Z,8.15
2023-02-11T01:57:01.277Z,7.40
2023-02-11T01:59:34.490Z,8.18
2023-02-11T02:02:07.455Z,7.28
2023-02-11T02:04:44.241Z,6.43
2023-02-11T02:07:30.631Z,8.18
2023-02-11T02:10:13.990Z,8.98
2023-02-11T02:12:40.922Z,7.90
2023-02-11T02:15:26.563Z,7.10
2023-02-11T02:18:27.856Z,6.80
2023-02-11T02:21:06.659Z,7.90
2023-02-11T02:23:57.743Z,9.55
2023-02-11T02:26:43.250Z,6.63
2023-02-11T02:29:35.130Z,7.75
2023-02-11T02:32:39.200Z,10.10
2023-02-11T02:35:30.297Z,9.45
2023-02-11T02:38:23.421Z,8.05
2023-02-11T02:41:06.842Z,10.80
2023-02-11T02:43:34.670Z,8.20
2023-02-11T02:46:15.182Z,8.10
2023-02-11T02:48:42.976Z,8.88
2023-02-11T02:51:27.639Z,8.23
2023-02-11T02:54:00.321Z,9.13
2023-02-11T02:57:12.246Z,9.23
2023-02-11T02:59:53.954Z,7.93
2023-02-11T03:02:29.566Z,9.57
2023-02-11T03:05:05.251Z,8.48
2023-02-11T03:07:48.688Z,8.85
2023-02-11T03:10:17.809Z,9.18
2023-02-11T03:12:47.157Z,8.10
2023-02-11T03:15:14.872Z,7.60
2023-02-11T03:17:45.856Z,9.20
2023-02-11T03:20:17.653Z,9.52
2023-02-11T03:23:40.734Z,9.20
2023-02-11T03:26:30.115Z,8.50
2023-02-11T03:28:59.884Z,11.13
2023-02-11T03:31:34.256Z,10.32
2023-02-11T03:34:14.501Z,10.02
2023-02-11T03:36:59.889Z,9.25
2023-02-11T03:39:38.022Z,9.85
2023-02-11T03:42:07.905Z,7.72
2023-02-11T03:44:41.328Z,9.50
2023-02-11T03:47:10.855Z,10.32
2023-02-11T03:49:40.431Z,13.10
2023-02-11T03:52:11.283Z,9.60
2023-02-11T03:54:40.790Z,11.95
2023-02-11T03:57:07.815Z,13.48
2023-02-11T03:59:52.498Z,8.50
2023-02-11T04:02:19.858Z,14.35
2023-02-11T04:04:47.214Z,14.20
2023-02-11T04:07:13.983Z,10.82
2023-02-11T04:09:40.754Z,13.65
2023-02-11T04:12:07.833Z,8.68
2023-02-11T04:14:34.859Z,13.32
2023-02-11T04:17:01.716Z,11.13
2023-02-11T04:19:28.535Z,16.80
2023-02-11T04:21:55.372Z,13.93
2023-02-11T04:24:22.204Z,16.88
2023-02-11T04:26:49.047Z,14.20
2023-02-11T04:29:15.921Z,9.93
2023-02-11T04:31:42.765Z,10.98
2023-02-11T04:34:09.555Z,10.75
2023-02-11T04:36:36.568Z,11.10
2023-02-11T04:39:04.045Z,9.23
2023-02-11T04:41:30.816Z,9.25
2023-02-11T04:43:57.575Z,9.57
2023-02-11T04:46:24.446Z,7.63
2023-02-11T04:48:51.616Z,17.40
2023-02-11T04:51:18.567Z,13.15
2023-02-11T04:53:45.469Z,9.95
2023-02-11T04:56:12.297Z,8.75
2023-02-11T04:58:39.113Z,11.63
2023-02-11T05:01:10.547Z,26.92
2023-02-11T05:03:37.967Z,11.63
2023-02-11T05:06:05.486Z,13.25
2023-02-11T05:08:32.388Z,9.93
2023-02-11T05:10:59.540Z,8.88
2023-02-11T05:13:26.318Z,10.80
2023-02-11T05:15:53.486Z,9.40
2023-02-11T05:18:20.381Z,9.27
2023-02-11T05:20:47.223Z,8.82
2023-02-11T05:23:14.052Z,7.57
2023-02-11T05:25:40.858Z,9.65
2023-02-11T05:28:07.735Z,11.35
2023-02-11T05:30:34.492Z,14.98
2023-02-11T05:33:01.319Z,11.82
2023-02-11T05:35:28.123Z,24.17
2023-02-11T05:37:54.875Z,12.20
2023-02-11T05:40:21.660Z,10.43
2023-02-11T05:42:48.568Z,11.90
2023-02-11T05:45:15.347Z,10.50
2023-02-11T05:47:42.144Z,8.25
2023-02-11T05:50:09.149Z,9.85
2023-02-11T05:52:36.006Z,10.23
2023-02-11T05:55:03.144Z,10.63
2023-02-11T05:57:29.956Z,14.55
2023-02-11T05:59:56.888Z,10.57
2023-02-11T06:02:25.190Z,11.55
2023-02-11T06:04:52.127Z,10.05
2023-02-11T06:07:19.794Z,10.70
2023-02-11T06:09:46.605Z,13.95
2023-02-11T06:12:13.416Z,12.82
2023-02-11T06:14:40.340Z,9.70
2023-02-11T06:17:07.416Z,13.52
2023-02-11T06:19:34.438Z,11.23
2023-02-11T06:22:01.257Z,10.77
2023-02-11T06:24:51.326Z,10.07
2023-02-11T06:27:14.904Z,10.27
2023-02-11T06:29:41.796Z,12.63
2023-02-11T06:32:13.536Z,14.25
2023-02-11T06:34:50.200Z,11.18
2023-02-11T06:37:17.050Z,22.92
2023-02-11T06:39:45.282Z,11.93
2023-02-11T06:42:12.210Z,10.52
2023-02-11T06:44:39.182Z,20.58
2023-02-11T06:47:06.049Z,9.88
2023-02-11T06:49:33.140Z,17.90
2023-02-11T06:52:01.153Z,20.52
2023-02-11T06:54:27.955Z,22.77
2023-02-11T06:56:54.753Z,17.27
2023-02-11T06:59:21.565Z,17.17
2023-02-11T07:01:48.520Z,18.58
2023-02-11T07:04:15.607Z,20.23
2023-02-11T07:06:42.515Z,35.28
2023-02-11T07:09:09.424Z,33.15
2023-02-11T07:11:36.304Z,18.90
2023-02-11T07:14:06.421Z,19.35
2023-02-11T07:16:33.659Z,17.88
2023-02-11T07:19:00.537Z,14.80
2023-02-11T07:21:27.955Z,26.13
2023-02-11T07:23:54.900Z,18.88
2023-02-11T07:26:23.710Z,15.88
2023-02-11T07:28:51.730Z,16.20
2023-02-11T07:31:22.236Z,15.65
2023-02-11T07:33:49.649Z,16.73
2023-02-11T07:36:17.234Z,13.07
2023-02-11T07:38:44.349Z,14.52
2023-02-11T07:41:14.079Z,14.57
2023-02-11T07:43:41.536Z,21.58
2023-02-11T07:46:20.393Z,22.88
2023-02-11T07:48:47.980Z,20.25
2023-02-11T07:51:17.521Z,21.02
2023-02-11T07:53:44.878Z,24.02
2023-02-11T07:56:13.442Z,24.33
2023-02-11T07:58:42.267Z,26.88
2023-02-11T08:01:19.044Z,27.55
2023-02-11T08:03:46.270Z,30.83
2023-02-11T08:06:16.592Z,25.45
2023-02-11T08:08:43.720Z,37.92
2023-02-11T08:11:19.130Z,47.33
2023-02-11T08:13:46.353Z,52.70
2023-02-11T08:16:18.539Z,52.63
2023-02-11T08:18:45.475Z,46.40
2023-02-11T08:21:12.392Z,45.53
2023-02-11T08:23:41.237Z,69.75
2023-02-11T08:26:11.154Z,99.15
2023-02-11T08:28:40.197Z,115.00
2023-02-11T08:31:17.747Z,139.18
2023-02-11T08:33:45.022Z,188.32
2023-02-11T08:36:17.678Z,173.32
2023-02-11T08:38:45.384Z,181.65
2023-02-11T08:41:14.962Z,235.48
2023-02-11T08:43:42.728Z,261.35
2023-02-11T08:46:12.451Z,378.63
2023-02-11T08:48:39.422Z,465.33
2023-02-11T08:51:08.489Z,468.73
2023-02-11T08:53:36.225Z,440.60
2023-02-11T08:56:03.492Z,436.08
2023-02-11T08:58:30.506Z,418.48
2023-02-11T09:00:57.518Z,396.05
2023-02-11T09:03:24.712Z,458.42
2023-02-11T09:05:53.457Z,528.10
2023-02-11T09:08:21.265Z,499.23
2023-02-11T09:10:48.935Z,452.90
2023-02-11T09:13:16.960Z,443.20
2023-02-11T09:15:47.020Z,559.60
2023-02-11T09:18:14.621Z,590.15
2023-02-11T09:20:41.464Z,550.08
2023-02-11T09:23:08.286Z,569.15
2023-02-11T09:25:35.073Z,584.25
2023-02-11T09:28:02.179Z,550.50
2023-02-11T09:30:29.267Z,554.80
2023-02-11T09:32:56.155Z,486.30
2023-02-11T09:35:23.743Z,479.95
2023-02-11T09:37:50.617Z,463.83
2023-02-11T09:40:24.364Z,416.90
2023-02-11T09:43:04.258Z,404.25
2023-02-11T09:45:32.377Z,396.98
2023-02-11T09:48:27.305Z,392.30
2023-02-11T09:51:00.485Z,403.25
2023-02-11T09:53:29.739Z,420.98
2023-02-11T09:56:00.048Z,403.38
2023-02-11T09:58:28.077Z,406.38
2023-02-11T10:01:04.119Z,358.13
2023-02-11T10:03:36.668Z,407.13
2023-02-11T10:06:35.721Z,457.63
2023-02-11T10:09:26.957Z,469.98
2023-02-11T10:12:30.461Z,457.85
2023-02-11T10:15:09.951Z,422.40
2023-02-11T10:17:54.751Z,391.25
2023-02-11T10:20:38.936Z,360.65
2023-02-11T10:23:25.832Z,345.70
2023-02-11T10:25:54.774Z,313.23
2023-02-11T10:28:25.210Z,288.33
2023-02-11T10:30:55.614Z,276.60
2023-02-11T10:33:32.453Z,261.45
2023-02-11T10:35:59.698Z,261.67
2023-02-11T10:38:27.806Z,256.48
2023-02-11T10:40:54.647Z,275.23
2023-02-11T10:43:26.313Z,225.30
2023-02-11T10:45:55.130Z,241.48
2023-02-11T10:48:40.178Z,233.05
2023-02-11T10:51:33.673Z,227.90
2023-02-11T10:54:19.308Z,231.20
2023-02-11T10:56:53.452Z,205.32
2023-02-11T10:59:40.076Z,200.05
2023-02-11T11:02:20.896Z,189.65
2023-02-11T11:04:48.685Z,188.45
2023-02-11T11:07:18.251Z,167.38
2023-02-11T11:10:06.652Z,155.30
2023-02-11T11:12:46.506Z,167.85
2023-02-11T11:15:28.143Z,170.95
2023-02-11T11:18:23.253Z,178.70
2023-02-11T11:21:02.187Z,158.13
2023-02-11T11:23:30.722Z,137.77
2023-02-11T11:26:12.415Z,126.03
2023-02-11T11:28:50.364Z,137.10
2023-02-11T11:31:30.594Z,127.47
2023-02-11T11:34:00.073Z,104.55
2023-02-11T11:36:39.653Z,108.63
2023-02-11T11:39:23.784Z,88.00
2023-02-11T11:41:56.731Z,73.45
2023-02-11T11:44:26.682Z,75.75
2023-02-11T11:47:26.322Z,73.68
2023-02-11T11:49:56.931Z,72.55
2023-02-11T11:52:42.159Z,74.43
2023-02-11T11:55:20.991Z,70.75
2023-02-11T11:57:48.777Z,93.40
2023-02-11T12:00:17.717Z,82.38
2023-02-11T12:03:08.846Z,78.10
2023-02-11T12:06:07.784Z,72.43
2023-02-11T12:08:49.544Z,76.05
2023-02-11T12:11:51.697Z,69.28
2023-02-11T12:14:51.880Z,77.82
2023-02-11T12:17:42.607Z,64.53
2023-02-11T12:20:43.620Z,71.15
2023-02-11T12:23:31.437Z,58.75
2023-02-11T12:26:10.059Z,66.07
2023-02-11T12:28:51.801Z,67.95
2023-02-11T12:32:00.955Z,72.38
2023-02-11T12:34:39.640Z,78.40
2023-02-11T12:37:19.065Z,67.40
2023-02-11T12:39:54.020Z,66.07
2023-02-11T12:42:42.271Z,64.25
2023-02-11T12:45:16.145Z,68.85
2023-02-11T12:48:04.499Z,73.05
2023-02-11T12:50:58.866Z,87.43
2023-02-11T12:53:40.584Z,77.35
2023-02-11T12:56:24.006Z,73.45
2023-02-11T12:58:54.000Z,78.63
2023-02-11T13:01:38.953Z,59.33
2023-02-11T13:04:05.809Z,66.28
2023-02-11T13:06:50.987Z,64.03
2023-02-11T13:09:25.274Z,62.42
2023-02-11T13:11:55.871Z,66.10
2023-02-11T13:14:29.148Z,56.58
2023-02-11T13:16:58.288Z,62.40
2023-02-11T13:19:28.382Z,56.42
2023-02-11T13:22:26.913Z,53.83
2023-02-11T13:25:03.935Z,50.13
2023-02-11T13:27:58.800Z,41.45
2023-02-11T13:30:34.696Z,43.15
2023-02-11T13:33:01.569Z,41.10
2023-02-11T13:35:34.290Z,48.85
2023-02-11T13:38:22.370Z,45.47
2023-02-11T13:41:06.784Z,38.60
2023-02-11T13:43:36.212Z,35.83
2023-02-11T13:46:10.148Z,40.58
2023-02-11T13:48:58.691Z,37.55
2023-02-11T13:51:42.855Z,36.60
2023-02-11T13:54:22.554Z,45.13
2023-02-11T13:57:37.325Z,41.97
2023-02-11T14:00:36.443Z,39.95
2023-02-11T14:03:30.901Z,39.92
2023-02-11T14:06:30.151Z,39.80
2023-02-11T14:09:09.404Z,41.70
2023-02-11T14:11:42.297Z,38.97
2023-02-11T14:14:23.886Z,35.88
2023-02-11T14:17:00.238Z,46.85
2023-02-11T14:19:43.587Z,36.92
2023-02-11T14:22:31.669Z,39.40
2023-02-11T14:24:58.660Z,39.85
2023-02-11T14:27:42.501Z,33.03
2023-02-11T14:30:24.069Z,38.92
2023-02-11T14:33:18.772Z,33.80
2023-02-11T14:36:10.528Z,35.40
2023-02-11T14:39:02.161Z,36.90
2023-02-11T14:41:44.122Z,35.00
2023-02-11T14:44:24.563Z,39.78
2023-02-11T14:46:54.012Z,36.13
2023-02-11T14:49:50.608Z,36.40
2023-02-11T14:52:31.075Z,38.00
2023-02-11T14:55:29.121Z,32.03
2023-02-11T14:58:19.279Z,38.97
2023-02-11T15:00:49.141Z,34.63
2023-02-11T15:03:38.279Z,35.60
2023-02-11T15:06:24.356Z,34.13
2023-02-11T15:09:01.522Z,41.03
2023-02-11T15:11:35.199Z,38.05
2023-02-11T15:14:09.922Z,28.67
2023-02-11T15:16:42.440Z,30.52
2023-02-11T15:19:25.790Z,28.55
2023-02-11T15:21:53.657Z,33.03
2023-02-11T15:24:25.244Z,30.33
2023-02-11T15:27:14.582Z,34.42
2023-02-11T15:29:45.000Z,32.45
2023-02-11T15:32:22.220Z,29.17
2023-02-11T15:34:51.037Z,33.78
2023-02-11T15:37:29.817Z,30.45
2023-02-11T15:40:15.255Z,35.38
2023-02-11T15:42:58.605Z,33.78
2023-02-11T15:45:33.987Z,32.08
2023-02-11T15:48:18.595Z,35.95
2023-02-11T15:50:58.707Z,35.88
2023-02-11T15:53:28.075Z,41.75
2023-02-11T15:56:10.089Z,40.38
2023-02-11T15:58:38.349Z,56.97
2023-02-11T16:01:05.573Z,48.45
2023-02-11T16:03:33.129Z,51.05
2023-02-11T16:06:23.673Z,45.00
2023-02-11T16:09:01.366Z,47.67
2023-02-11T16:11:38.315Z,43.08
2023-02-11T16:14:23.372Z,44.17
2023-02-11T16:16:56.248Z,50.03
2023-02-11T16:19:25.890Z,43.00
2023-02-11T16:21:55.026Z,39.80
2023-02-11T16:24:33.496Z,39.90
2023-02-11T16:27:02.526Z,35.38
2023-02-11T16:29:31.700Z,39.30
2023-02-11T16:32:17.996Z,46.15
2023-02-11T16:34:44.831Z,44.22
2023-02-11T16:37:11.804Z,55.22
2023-02-11T16:39:38.678Z,52.65
2023-02-11T16:42:07.729Z,53.95
2023-02-11T16:44:35.374Z,54.33
2023-02-11T16:47:03.956Z,51.83
2023-02-11T16:49:34.336Z,55.08
2023-02-11T16:52:05.592Z,50.83
2023-02-11T16:54:33.392Z,50.53
2023-02-11T16:57:00.554Z,54.25
2023-02-11T16:59:27.382Z,71.50
2023-02-11T17:01:55.044Z,55.97
2023-02-11T17:04:26.510Z,56.65
2023-02-11T17:06:53.455Z,53.97
2023-02-11T17:09:28.973Z,57.85
2023-02-11T17:11:57.150Z,50.55
2023-02-11T17:14:24.063Z,47.03
2023-02-11T17:16:51.277Z,45.83
2023-02-11T17:19:20.880Z,47.70
2023-02-11T17:21:50.266Z,50.42
2023-02-11T17:24:17.489Z,48.65
2023-02-11T17:26:45.602Z,45.42
2023-02-11T17:29:18.272Z,50.15
2023-02-11T17:31:45.332Z,49.42
2023-02-11T17:34:12.416Z,47.30
2023-02-11T17:36:41.368Z,50.25
2023-02-11T17:39:08.618Z,49.05
2023-02-11T17:41:39.246Z,50.58
2023-02-11T17:44:07.260Z,53.03
2023-02-11T17:46:37.278Z,55.83
2023-02-11T17:49:04.592Z,56.47
2023-02-11T17:51:34.669Z,56.83
2023-02-11T17:54:04.975Z,57.03
2023-02-11T17:56:33.125Z,63.63
2023-02-11T17:59:02.449Z,51.03
2023-02-11T18:01:30.985Z,47.53
2023-02-11T18:03:57.825Z,45.10
2023-02-11T18:06:25.472Z,53.60
2023-02-11T18:08:52.587Z,55.05
2023-02-11T18:11:19.542Z,51.63
2023-02-11T18:13:51.365Z,49.33
2023-02-11T18:16:18.308Z,57.88
2023-02-11T18:18:45.129Z,70.28
2023-02-11T18:21:18.196Z,68.75
2023-02-11T18:23:45.764Z,56.08
2023-02-11T18:26:14.189Z,59.20
2023-02-11T18:28:43.283Z,58.03
2023-02-11T18:31:13.924Z,55.00
2023-02-11T18:33:44.010Z,46.45
2023-02-11T18:36:13.739Z,51.90
2023-02-11T18:38:41.531Z,49.83
2023-02-11T18:41:08.964Z,48.25
2023-02-11T18:43:36.466Z,48.40
2023-02-11T18:46:08.509Z,54.83
2023-02-11T18:48:35.435Z,49.50
2023-02-11T18:51:02.268Z,45.70
2023-02-11T18:53:29.104Z,51.55
2023-02-11T18:55:55.926Z,49.28
2023-02-11T18:58:22.816Z,54.53
2023-02-11T19:00:49.905Z,52.53
2023-02-11T19:03:17.090Z,59.03
2023-02-11T19:05:44.883Z,61.30
2023-02-11T19:08:12.347Z,56.20
2023-02-11T19:10:43.903Z,60.28
2023-02-11T19:13:11.366Z,41.27
2023-02-11T19:15:42.246Z,57.58
2023-02-11T19:18:09.327Z,55.30
2023-02-11T19:20:38.882Z,66.05
2023-02-11T19:23:05.788Z,66.40
2023-02-11T19:25:33.258Z,71.22
2023-02-11T19:28:00.351Z,74.85
2023-02-11T19:30:27.677Z,65.80
2023-02-11T19:32:57.118Z,64.90
2023-02-11T19:35:24.973Z,44.75
2023-02-11T19:37:51.829Z,38.85
2023-02-11T19:40:19.257Z,48.53
2023-02-11T19:42:46.060Z,49.72
2023-02-11T19:45:13.104Z,48.47
2023-02-11T19:47:39.865Z,50.10
2023-02-11T19:50:07.421Z,47.90
2023-02-11T19:52:34.343Z,47.38
2023-02-11T19:55:01.105Z,47.00
2023-02-11T19:57:27.905Z,49.47
2023-02-11T19:59:56.916Z,49.33
2023-02-11T20:02:23.825Z,53.20
2023-02-11T20:04:50.589Z,47.47
2023-02-11T20:07:17.389Z,40.72
2023-02-11T20:09:44.354Z,55.80
2023-02-11T20:12:12.087Z,66.82
2023-02-11T20:14:38.978Z,47.08
2023-02-11T20:17:05.738Z,52.90
2023-02-11T20:19:32.644Z,50.53
2023-02-11T20:21:59.378Z,44.67
2023-02-11T20:24:26.667Z,49.08
2023-02-11T20:26:56.508Z,45.20
2023-02-11T20:29:24.937Z,43.72
2023-02-11T20:31:51.823Z,39.17
2023-02-11T20:34:18.950Z,43.60
2023-02-11T20:36:52.082Z,40.78
2023-02-11T20:39:21.851Z,40.33
2023-02-11T20:41:49.387Z,40.33
2023-02-11T20:44:16.501Z,51.42
2023-02-11T20:46:48.209Z,56.53
2023-02-11T20:49:18.935Z,47.03
2023-02-11T20:51:46.416Z,47.17
2023-02-11T20:54:15.768Z,37.53
2023-02-11T20:56:43.706Z,41.92
2023-02-11T20:59:13.772Z,40.38
2023-02-11T21:01:43.228Z,38.08
2023-02-11T21:04:19.282Z,40.55
2023-02-11T21:06:54.974Z,37.03
2023-02-11T21:09:26.135Z,42.35
2023-02-11T21:11:54.135Z,39.65
2023-02-11T21:14:22.344Z,38.15
2023-02-11T21:16:49.570Z,42.15
2023-02-11T21:19:16.722Z,42.05
2023-02-11T21:21:43.593Z,38.65
2023-02-11T21:24:10.528Z,43.70
2023-02-11T21:26:37.966Z,41.78
2023-02-11T21:29:06.779Z,34.17
2023-02-11T21:31:35.078Z,34.35
2023-02-11T21:34:02.209Z,35.20
2023-02-11T21:36:29.941Z,41.42
2023-02-11T21:38:56.757Z,34.45
2023-02-11T21:41:24.864Z,37.70
2023-02-11T21:43:52.510Z,37.33
2023-02-11T21:46:20.619Z,36.42
2023-02-11T21:48:48.220Z,33.88
2023-02-11T21:51:18.168Z,39.95
2023-02-11T21:53:45.628Z,39.15
2023-02-11T21:56:18.216Z,40.88
2023-02-11T21:58:46.087Z,38.08
2023-02-11T22:01:22.080Z,30.75
2023-02-11T22:03:49.173Z,33.53
2023-02-11T22:06:21.853Z,31.60
2023-02-11T22:08:50.052Z,31.38
2023-02-11T22:11:16.873Z,33.63
2023-02-11T22:13:43.791Z,40.20
2023-02-11T22:16:13.508Z,38.40
2023-02-11T22:18:40.883Z,38.88
2023-02-11T22:21:10.162Z,38.92
2023-02-11T22:23:38.075Z,36.70
2023-02-11T22:26:13.570Z,35.97
2023-02-11T22:28:40.954Z,38.90
2023-02-11T22:31:14.892Z,36.78
2023-02-11T22:33:41.782Z,39.15
2023-02-11T22:36:15.397Z,121.70
2023-02-11T22:38:42.270Z,111.20
2023-02-11T22:41:10.914Z,156.60
2023-02-11T22:43:38.218Z,46.63
2023-02-11T22:46:06.890Z,42.35
2023-02-11T22:48:35.112Z,48.47
2023-02-11T22:51:10.510Z,37.28
2023-02-11T22:53:37.331Z,38.25
2023-02-11T22:56:07.041Z,36.00
2023-02-11T22:58:35.118Z,37.08
2023-02-11T23:01:02.784Z,43.65
2023-02-11T23:03:29.665Z,38.75
2023-02-11T23:05:58.576Z,40.50
2023-02-11T23:08:25.986Z,39.05
2023-02-11T23:10:53.159Z,34.80
2023-02-11T23:13:20.246Z,37.33
2023-02-11T23:15:48.095Z,37.22
2023-02-11T23:18:14.939Z,35.35
2023-02-11T23:20:43.703Z,32.08
2023-02-11T23:23:10.798Z,35.67
2023-02-11T23:25:43.426Z,37.70
2023-02-11T23:28:11.187Z,40.40
2023-02-11T23:30:38.463Z,40.67
2023-02-11T23:33:05.421Z,35.58
2023-02-11T23:35:32.835Z,40.22
2023-02-11T23:37:59.613Z,38.15
2023-02-11T23:40:26.505Z,37.58
2023-02-11T23:42:53.316Z,36.47
2023-02-11T23:45:20.283Z,35.03
2023-02-11T23:47:47.652Z,32.95
2023-02-11T23:50:14.893Z,33.60
2023-02-11T23:52:41.841Z,37.28
2023-02-11T23:55:09.075Z,36.00
2023-02-11T23:57:35.997Z,40.95
